TimeCDT,TemperatureF,Dew PointF,Humidity,Sea Level PressureIn,VisibilityMPH,Wind Direction,Wind SpeedMPH,Gust SpeedMPH,PrecipitationIn,Events,Conditions,WindDirDegrees,DateUTC
12:51 AM,82.0,73.9,76,29.86,10.0,SE,8.1,-,N/A,,Partly Cloudy,140,2013-09-27 05:51:00
1:51 AM,81.0,73.9,79,29.86,10.0,SE,8.1,-,N/A,,Partly Cloudy,140,2013-09-27 06:51:00
2:51 AM,81.0,75.0,82,29.86,10.0,SSE,6.9,-,N/A,,Partly Cloudy,150,2013-09-27 07:51:00
3:51 AM,80.1,75.0,85,29.84,10.0,SE,5.8,-,N/A,,Partly Cloudy,140,2013-09-27 08:51:00
4:51 AM,80.1,75.0,85,29.83,10.0,SE,5.8,-,N/A,,Partly Cloudy,130,2013-09-27 09:51:00
5:51 AM,80.1,75.0,85,29.83,10.0,ESE,5.8,-,N/A,,Partly Cloudy,110,2013-09-27 10:51:00
6:51 AM,81.0,75.9,85,29.85,10.0,SE,6.9,-,N/A,,Partly Cloudy,130,2013-09-27 11:51:00
7:51 AM,82.0,77.0,85,29.86,10.0,SE,6.9,-,N/A,,Scattered Clouds,140,2013-09-27 12:51:00
8:51 AM,84.9,78.1,80,29.87,10.0,SE,11.5,-,N/A,,Scattered Clouds,140,2013-09-27 13:51:00
9:51 AM,88.0,77.0,70,29.88,10.0,SE,16.1,-,N/A,,Scattered Clouds,140,2013-09-27 14:51:00
10:51 AM,89.1,75.9,65,29.88,10.0,SSE,18.4,-,N/A,,Mostly Cloudy,150,2013-09-27 15:51:00
11:51 AM,93.0,75.0,56,29.88,10.0,SSE,19.6,25.3,N/A,,Scattered Clouds,150,2013-09-27 16:51:00
12:51 PM,93.9,73.9,52,29.88,10.0,SSE,18.4,26.5,N/A,,Scattered Clouds,160,2013-09-27 17:51:00
1:51 PM,91.9,73.9,55,29.86,10.0,SSE,17.3,25.3,N/A,,Mostly Cloudy,150,2013-09-27 18:51:00
2:51 PM,93.0,75.9,57,29.82,10.0,SSE,19.6,-,N/A,,Scattered Clouds,150,2013-09-27 19:51:00
3:51 PM,91.9,75.9,59,29.81,10.0,SE,20.7,27.6,N/A,,Scattered Clouds,130,2013-09-27 20:51:00
4:51 PM,91.9,75.9,59,29.81,10.0,SE,18.4,26.5,N/A,,Mostly Cloudy,140,2013-09-27 21:51:00
5:51 PM,90.0,75.9,63,29.81,10.0,ESE,20.7,25.3,N/A,,Scattered Clouds,120,2013-09-27 22:51:00
6:51 PM,87.1,75.9,69,29.81,10.0,SE,19.6,-,N/A,,Scattered Clouds,130,2013-09-27 23:51:00
7:51 PM,86.0,77.0,74,29.82,10.0,SE,15.0,-,N/A,,Scattered Clouds,130,2013-09-28 00:51:00
8:51 PM,84.9,77.0,77,29.84,10.0,SE,17.3,-,N/A,,Partly Cloudy,130,2013-09-28 01:51:00
9:51 PM,84.9,77.0,77,29.86,10.0,SE,16.1,24.2,N/A,,Partly Cloudy,130,2013-09-28 02:51:00
10:51 PM,84.0,78.1,82,29.87,10.0,SE,11.5,-,N/A,,Partly Cloudy,140,2013-09-28 03:51:00
11:51 PM,84.0,78.1,82,29.87,10.0,SE,12.7,-,N/A,,Mostly Cloudy,140,2013-09-28 04:51:00